Time;durP1;ratioP1;P1;durP2;ratioP2;P2;SDS_P1;SDS_P2;PMS_P1;PMS_P2;Temp;Humidity;BMP_temperature;BMP_pressure;BME280_temperature;BME280_humidity;BME280_pressure;Samples;Min_cycle;Max_cycle;Signal;HPM_P1;HPM_P2
2021/09/10 00:00:37;;;;;;;10.32;7.95;;;20.10;99.90;;;;;;4992766;28;20295;-66
2021/09/10 00:03:04;;;;;;;7.75;7.10;;;20.10;99.90;;;;;;4993050;28;20205;-67
2021/09/10 00:05:31;;;;;;;7.95;7.30;;;20.00;99.90;;;;;;4992968;28;20212;-65
2021/09/10 00:07:58;;;;;;;8.65;7.95;;;20.10;99.90;;;;;;4992966;28;20216;-66
2021/09/10 00:10:25;;;;;;;8.73;7.95;;;20.10;99.90;;;;;;4992874;28;20263;-65
2021/09/10 00:12:53;;;;;;;10.10;9.10;;;20.10;99.90;;;;;;4993203;28;20267;-66
2021/09/10 00:15:20;;;;;;;9.80;8.90;;;20.00;99.90;;;;;;4992483;28;20284;-66
2021/09/10 00:17:47;;;;;;;9.25;8.50;;;20.00;99.90;;;;;;4993234;28;20584;-65
2021/09/10 00:20:14;;;;;;;9.07;8.38;;;20.00;99.90;;;;;;4992787;28;20672;-66
2021/09/10 00:22:41;;;;;;;8.75;7.80;;;20.10;99.90;;;;;;4992732;28;20696;-66
2021/09/10 00:25:10;;;;;;;8.52;7.65;;;20.10;99.90;;;;;;4992889;28;20240;-66
2021/09/10 00:27:37;;;;;;;8.80;7.93;;;20.10;99.90;;;;;;4992849;28;20204;-66
2021/09/10 00:30:07;;;;;;;8.15;7.45;;;20.10;99.90;;;;;;4992429;28;20205;-66
2021/09/10 00:32:34;;;;;;;6.57;5.97;;;20.10;99.90;;;;;;4992713;28;20260;-68
2021/09/10 00:35:01;;;;;;;6.35;5.75;;;20.00;99.90;;;;;;4993112;28;20213;-66
2021/09/10 00:37:28;;;;;;;8.48;6.82;;;20.00;99.90;;;;;;4992412;28;20252;-65
2021/09/10 00:39:55;;;;;;;6.70;5.95;;;20.00;99.90;;;;;;4992666;28;20232;-65
2021/09/10 00:42:22;;;;;;;7.65;7.03;;;20.00;99.90;;;;;;4992107;28;20212;-65
2021/09/10 00:44:49;;;;;;;7.80;7.13;;;20.00;99.90;;;;;;4992960;28;20208;-67
2021/09/10 00:47:18;;;;;;;7.03;6.40;;;20.00;99.90;;;;;;4992944;28;20213;-65
2021/09/10 00:49:45;;;;;;;8.45;7.65;;;20.00;99.90;;;;;;4992815;28;20217;-65
2021/09/10 00:52:12;;;;;;;7.82;7.13;;;19.90;99.90;;;;;;4992592;28;20231;-66
2021/09/10 00:54:40;;;;;;;8.30;6.55;;;19.90;99.90;;;;;;4992094;28;20677;-65
2021/09/10 00:57:07;;;;;;;7.22;6.63;;;19.90;99.90;;;;;;4992074;28;20209;-66
2021/09/10 00:59:33;;;;;;;7.25;6.50;;;19.90;99.90;;;;;;4991663;28;20232;-65
2021/09/10 01:02:01;;;;;;;7.05;6.18;;;19.90;99.90;;;;;;4992460;28;20758;-65
2021/09/10 01:04:30;;;;;;;9.32;7.20;;;19.90;99.90;;;;;;4991625;28;20213;-66
2021/09/10 01:06:58;;;;;;;6.88;6.18;;;19.90;99.90;;;;;;4992323;28;20624;-65
2021/09/10 01:09:26;;;;;;;6.88;6.38;;;19.80;99.90;;;;;;4991494;28;20209;-65
2021/09/10 01:11:54;;;;;;;8.32;7.63;;;19.80;99.90;;;;;;4992134;28;20209;-65
2021/09/10 01:14:21;;;;;;;7.63;6.93;;;19.90;99.90;;;;;;4991710;28;20251;-65
2021/09/10 01:16:49;;;;;;;10.60;8.13;;;19.70;99.90;;;;;;4991979;28;20271;-65
2021/09/10 01:19:27;;;;;;;7.28;6.63;;;19.60;99.90;;;;;;4992198;28;20256;-65
2021/09/10 01:21:59;;;;;;;7.70;6.90;;;19.60;99.90;;;;;;4991917;28;20209;-65
2021/09/10 01:24:29;;;;;;;8.23;7.53;;;19.60;99.90;;;;;;4991604;28;20263;-65
2021/09/10 01:26:56;;;;;;;8.02;7.38;;;19.70;99.90;;;;;;4991673;28;20209;-65
2021/09/10 01:29:23;;;;;;;7.85;7.05;;;19.70;99.90;;;;;;4991382;28;20267;-66
2021/09/10 01:31:50;;;;;;;7.70;7.10;;;19.60;99.90;;;;;;4992027;28;20213;-64
2021/09/10 01:34:17;;;;;;;9.07;7.55;;;19.60;99.90;;;;;;4991910;28;20209;-64
2021/09/10 01:36:44;;;;;;;8.77;7.35;;;19.50;99.90;;;;;;4991117;28;20735;-66
2021/09/10 01:39:11;;;;;;;6.90;6.30;;;19.50;99.90;;;;;;4991239;28;20751;-65
2021/09/10 01:41:39;;;;;;;7.70;7.10;;;19.50;99.90;;;;;;4991117;28;20217;-65
2021/09/10 01:44:06;;;;;;;7.95;7.25;;;19.40;99.90;;;;;;4991169;28;20205;-64
2021/09/10 01:46:33;;;;;;;9.32;8.52;;;19.40;99.90;;;;;;4991106;28;20209;-66
2021/09/10 01:49:00;;;;;;;8.40;7.60;;;19.40;99.90;;;;;;4991505;28;20634;-67
2021/09/10 01:51:31;;;;;;;8.40;7.57;;;19.40;99.90;;;;;;4983931;28;20591;-67
2021/09/10 01:53:58;;;;;;;8.15;7.45;;;19.40;99.90;;;;;;4991316;28;20252;-66
2021/09/10 01:56:25;;;;;;;8.85;8.07;;;19.40;99.90;;;;;;4990446;28;20204;-66
2021/09/10 01:58:53;;;;;;;8.55;7.75;;;19.50;99.90;;;;;;4991190;28;20271;-67
2021/09/10 02:01:24;;;;;;;8.25;7.57;;;19.50;99.90;;;;;;4991133;28;20232;-65
2021/09/10 02:03:52;;;;;;;8.68;7.95;;;19.50;99.90;;;;;;4991060;28;20208;-65
2021/09/10 02:06:19;;;;;;;8.75;7.85;;;19.40;99.90;;;;;;4991735;28;20259;-65
2021/09/10 02:08:47;;;;;;;9.68;8.88;;;19.50;99.90;;;;;;4990663;28;20263;-65
2021/09/10 02:11:14;;;;;;;8.75;7.95;;;19.50;99.90;;;;;;4990978;28;20209;-65
2021/09/10 02:13:41;;;;;;;8.50;7.80;;;19.60;99.90;;;;;;4990917;28;20209;-66
2021/09/10 02:16:11;;;;;;;8.75;8.05;;;19.60;99.90;;;;;;4990732;28;20209;-65
2021/09/10 02:18:39;;;;;;;13.30;9.70;;;19.60;99.90;;;;;;4991130;28;20208;-66
2021/09/10 02:21:07;;;;;;;9.50;8.70;;;19.70;99.90;;;;;;4991077;28;20236;-66
2021/09/10 02:23:34;;;;;;;10.38;9.55;;;19.70;99.90;;;;;;4990666;28;20654;-65
2021/09/10 02:26:01;;;;;;;9.88;8.98;;;19.50;99.90;;;;;;4990656;28;20217;-66
2021/09/10 02:28:28;;;;;;;8.82;8.18;;;19.40;99.90;;;;;;4990316;28;20209;-65
2021/09/10 02:30:55;;;;;;;12.13;10.98;;;19.30;99.90;;;;;;4990969;28;20213;-67
2021/09/10 02:33:24;;;;;;;10.73;9.70;;;19.20;99.90;;;;;;4990652;28;20267;-65
2021/09/10 02:35:51;;;;;;;10.48;9.48;;;19.20;99.90;;;;;;4991241;28;20209;-65
2021/09/10 02:38:18;;;;;;;10.95;9.95;;;19.10;99.90;;;;;;4991009;28;20683;-65
2021/09/10 02:40:45;;;;;;;10.93;9.57;;;19.10;99.90;;;;;;4990536;28;20228;-65
2021/09/10 02:43:12;;;;;;;13.02;10.25;;;19.10;99.90;;;;;;4990937;28;20641;-65
2021/09/10 02:45:39;;;;;;;10.65;9.70;;;19.10;1.00;;;;;;4990649;28;20208;-67
2021/09/10 02:48:06;;;;;;;10.27;9.27;;;19.10;99.90;;;;;;4990833;28;20213;-67
2021/09/10 02:50:35;;;;;;;10.43;9.52;;;19.10;99.90;;;;;;4990230;28;20730;-65
2021/09/10 02:53:02;;;;;;;10.55;9.55;;;19.10;99.90;;;;;;4990739;28;20213;-66
2021/09/10 02:55:29;;;;;;;11.45;9.82;;;19.10;99.90;;;;;;4990205;28;20251;-65
2021/09/10 02:57:56;;;;;;;11.32;10.23;;;19.10;99.90;;;;;;4990553;28;20564;-65
2021/09/10 03:00:23;;;;;;;12.50;11.32;;;19.20;99.90;;;;;;4989921;28;20228;-65
2021/09/10 03:02:50;;;;;;;11.98;11.00;;;19.20;1.00;;;;;;4990808;28;20213;-65
2021/09/10 03:05:17;;;;;;;16.20;14.43;;;19.20;1.00;;;;;;4990971;28;20255;-65
2021/09/10 03:07:45;;;;;;;14.23;12.82;;;19.10;1.00;;;;;;4990203;28;20220;-66
2021/09/10 03:10:13;;;;;;;12.68;11.38;;;19.10;1.00;;;;;;4990429;28;20634;-65
2021/09/10 03:12:40;;;;;;;12.68;11.57;;;19.00;1.00;;;;;;4990047;28;20692;-67
2021/09/10 03:15:11;;;;;;;12.27;11.25;;;19.00;1.00;;;;;;4990928;28;20279;-68
2021/09/10 03:17:38;;;;;;;12.93;11.65;;;19.00;1.00;;;;;;4990250;28;20212;-69
2021/09/10 03:20:06;;;;;;;11.98;11.00;;;19.00;1.00;;;;;;4991877;28;20356;-68
2021/09/10 03:22:33;;;;;;;13.60;12.18;;;19.00;1.00;;;;;;4993521;28;20739;-69
2021/09/10 03:25:02;;;;;;;14.48;12.18;;;19.00;1.00;;;;;;4993701;28;20727;-69
2021/09/10 03:27:29;;;;;;;15.18;13.65;;;19.00;1.00;;;;;;4993819;28;20209;-68
2021/09/10 03:29:57;;;;;;;14.00;12.70;;;19.00;1.00;;;;;;4993939;28;20642;-69
2021/09/10 03:32:24;;;;;;;11.70;10.70;;;19.00;1.00;;;;;;4993599;28;20204;-68
2021/09/10 03:34:51;;;;;;;13.25;12.13;;;18.90;1.00;;;;;;4993836;28;20287;-68
2021/09/10 03:37:18;;;;;;;14.85;13.38;;;18.90;1.00;;;;;;4994414;28;20269;-68
2021/09/10 03:39:45;;;;;;;14.07;12.68;;;18.90;1.00;;;;;;4993489;28;20233;-68
2021/09/10 03:42:13;;;;;;;15.85;11.77;;;18.90;1.00;;;;;;4993957;28;20294;-68
2021/09/10 03:44:40;;;;;;;13.80;12.25;;;18.90;1.00;;;;;;4993444;28;20271;-68
2021/09/10 03:47:07;;;;;;;10.63;9.48;;;19.00;1.00;;;;;;4993661;28;20632;-68
2021/09/10 03:49:36;;;;;;;11.60;10.45;;;19.10;1.00;;;;;;4993453;28;20208;-68
2021/09/10 03:52:03;;;;;;;11.13;10.02;;;19.20;1.00;;;;;;4993432;28;20247;-68
2021/09/10 03:54:31;;;;;;;8.98;8.25;;;19.40;1.00;;;;;;4993041;28;20738;-68
2021/09/10 03:56:58;;;;;;;10.30;8.30;;;19.40;1.00;;;;;;4993486;28;20212;-68
2021/09/10 03:59:26;;;;;;;8.55;7.72;;;19.50;1.00;;;;;;4993104;28;20209;-69
2021/09/10 04:01:53;;;;;;;8.63;7.50;;;19.40;1.00;;;;;;4993321;28;20283;-68
2021/09/10 04:04:20;;;;;;;9.68;7.45;;;19.40;1.00;;;;;;4992911;28;20212;-69
2021/09/10 04:06:47;;;;;;;7.53;6.65;;;19.50;1.00;;;;;;4993181;28;20259;-68
2021/09/10 04:09:14;;;;;;;8.32;7.53;;;19.40;1.00;;;;;;4993070;28;20208;-68
2021/09/10 04:11:41;;;;;;;8.80;6.95;;;19.50;1.00;;;;;;4993016;28;20263;-68
2021/09/10 04:14:08;;;;;;;7.57;6.72;;;19.50;1.00;;;;;;4993216;28;20212;-68
2021/09/10 04:16:36;;;;;;;7.60;6.90;;;19.50;1.00;;;;;;4992952;28;20252;-68
2021/09/10 04:19:04;;;;;;;7.78;6.82;;;19.50;1.00;;;;;;4991964;28;20213;-68
2021/09/10 04:21:31;;;;;;;6.55;6.05;;;19.50;1.00;;;;;;4991141;28;20240;-67
2021/09/10 04:23:58;;;;;;;8.85;6.60;;;19.40;1.00;;;;;;4993288;28;20208;-67
2021/09/10 04:26:25;;;;;;;10.48;7.13;;;19.40;1.00;;;;;;4992562;28;20209;-69
2021/09/10 04:28:52;;;;;;;7.10;6.50;;;19.50;1.00;;;;;;4993011;28;20208;-69
2021/09/10 04:31:20;;;;;;;7.88;7.07;;;19.50;1.00;;;;;;4992617;28;20561;-69
2021/09/10 04:33:49;;;;;;;6.05;5.45;;;19.50;1.00;;;;;;4992275;28;20260;-69
2021/09/10 04:36:16;;;;;;;8.52;7.57;;;19.60;1.00;;;;;;4992799;28;20209;-69
2021/09/10 04:38:43;;;;;;;8.07;7.28;;;19.60;1.00;;;;;;4992399;28;20217;-69
2021/09/10 04:41:10;;;;;;;7.45;6.78;;;19.60;1.00;;;;;;4992218;28;20299;-69
2021/09/10 04:43:37;;;;;;;9.90;8.20;;;19.70;99.90;;;;;;4992153;28;20263;-69
2021/09/10 04:46:05;;;;;;;8.77;7.72;;;19.70;1.00;;;;;;4992688;28;20271;-70
2021/09/10 04:48:32;;;;;;;9.05;7.10;;;19.60;1.00;;;;;;4992134;28;20209;-69
2021/09/10 04:51:00;;;;;;;8.73;7.93;;;19.60;1.00;;;;;;4992192;28;20611;-69
2021/09/10 04:53:27;;;;;;;9.88;7.70;;;19.70;1.00;;;;;;4991890;28;20256;-69
2021/09/10 04:55:54;;;;;;;12.27;9.32;;;19.60;1.00;;;;;;4991945;28;20750;-69
2021/09/10 04:58:23;;;;;;;8.90;8.10;;;19.50;1.00;;;;;;4988377;28;20626;-70
2021/09/10 05:00:50;;;;;;;11.23;10.23;;;19.40;1.00;;;;;;4991760;28;20328;-69
2021/09/10 05:03:17;;;;;;;12.27;9.23;;;19.40;1.00;;;;;;4992675;28;20213;-69
2021/09/10 05:05:44;;;;;;;10.05;9.07;;;19.50;1.00;;;;;;4991183;28;20692;-69
2021/09/10 05:08:13;;;;;;;9.40;8.50;;;19.40;1.00;;;;;;4992110;28;20574;-69
2021/09/10 05:10:40;;;;;;;10.75;9.43;;;19.30;1.00;;;;;;4991099;28;20287;-69
2021/09/10 05:13:07;;;;;;;12.00;10.73;;;19.20;1.00;;;;;;4992021;28;20263;-69
2021/09/10 05:15:34;;;;;;;11.60;9.77;;;19.10;1.00;;;;;;4989292;28;20751;-69
2021/09/10 05:18:01;;;;;;;11.93;10.80;;;19.20;1.00;;;;;;4981587;28;20212;-69
2021/09/10 05:20:28;;;;;;;11.50;10.50;;;19.20;1.00;;;;;;4991421;28;20240;-68
2021/09/10 05:22:55;;;;;;;14.27;10.93;;;19.20;1.00;;;;;;4991659;28;20263;-68
2021/09/10 05:25:24;;;;;;;14.38;11.80;;;19.30;1.00;;;;;;4991308;28;20209;-68
2021/09/10 05:27:52;;;;;;;13.07;10.57;;;19.30;1.00;;;;;;4991800;28;20209;-68
2021/09/10 05:30:20;;;;;;;12.70;11.50;;;19.30;1.00;;;;;;4991560;28;20573;-68
2021/09/10 05:32:47;;;;;;;11.52;10.43;;;19.30;1.00;;;;;;4992027;28;20621;-68
2021/09/10 05:35:15;;;;;;;13.32;11.88;;;19.20;1.00;;;;;;4991305;28;20229;-68
2021/09/10 05:37:42;;;;;;;14.07;11.77;;;19.20;1.00;;;;;;4991290;28;20236;-68
2021/09/10 05:40:10;;;;;;;13.82;12.43;;;19.20;1.00;;;;;;4990087;28;20260;-68
2021/09/10 05:42:38;;;;;;;13.57;12.27;;;19.20;1.00;;;;;;4987424;28;20260;-67
2021/09/10 05:45:07;;;;;;;11.98;10.50;;;19.20;1.00;;;;;;4977409;28;20216;-68
2021/09/10 05:47:34;;;;;;;12.73;10.73;;;19.20;1.00;;;;;;4981176;28;20213;-68
2021/09/10 05:50:01;;;;;;;13.43;12.13;;;19.30;1.00;;;;;;4990029;28;20220;-69
2021/09/10 05:52:29;;;;;;;13.68;12.27;;;19.30;1.00;;;;;;4990337;28;20665;-69
2021/09/10 05:54:56;;;;;;;13.93;12.48;;;19.40;1.00;;;;;;4989283;28;20213;-69
2021/09/10 05:57:23;;;;;;;14.80;12.32;;;19.40;1.00;;;;;;4989098;28;20216;-68
2021/09/10 05:59:51;;;;;;;12.38;11.27;;;19.50;1.00;;;;;;4991477;28;20220;-68
2021/09/10 06:02:21;;;;;;;12.70;11.50;;;19.50;1.00;;;;;;4991058;28;20622;-68
2021/09/10 06:04:48;;;;;;;14.80;13.07;;;19.60;1.00;;;;;;4991281;28;20216;-68
2021/09/10 06:07:15;;;;;;;13.27;11.82;;;19.50;1.00;;;;;;4990399;28;20264;-68
2021/09/10 06:09:42;;;;;;;14.52;13.15;;;19.50;1.00;;;;;;4990126;28;20243;-68
2021/09/10 06:12:09;;;;;;;17.13;13.38;;;19.40;1.00;;;;;;4990763;28;20209;-68
2021/09/10 06:14:36;;;;;;;17.42;13.85;;;19.40;1.00;;;;;;4977191;28;20205;-68
2021/09/10 06:17:05;;;;;;;15.70;14.23;;;19.50;1.00;;;;;;4989889;28;20209;-68
2021/09/10 06:19:32;;;;;;;15.65;13.30;;;19.50;1.00;;;;;;4990031;28;20216;-68
2021/09/10 06:21:59;;;;;;;14.30;12.98;;;19.60;1.00;;;;;;4990846;28;20237;-68
2021/09/10 06:24:26;;;;;;;14.88;13.48;;;19.60;1.00;;;;;;4990452;28;20224;-68
2021/09/10 06:26:53;;;;;;;19.52;14.70;;;19.60;1.00;;;;;;4990977;28;20680;-68
2021/09/10 06:29:20;;;;;;;16.17;14.50;;;19.60;1.00;;;;;;4990399;28;20200;-68
2021/09/10 06:31:49;;;;;;;16.52;13.52;;;19.60;1.00;;;;;;4991178;28;20205;-68
2021/09/10 06:34:20;;;;;;;13.73;12.27;;;19.70;1.00;;;;;;4991134;28;20209;-68
2021/09/10 06:36:48;;;;;;;17.30;13.02;;;19.70;1.00;;;;;;4991180;28;20241;-68
2021/09/10 06:39:15;;;;;;;15.68;14.10;;;19.80;99.90;;;;;;4990936;28;20216;-68
2021/09/10 06:41:42;;;;;;;26.38;19.67;;;19.80;1.00;;;;;;4989395;28;20730;-68
2021/09/10 06:44:10;;;;;;;35.88;27.80;;;19.70;99.90;;;;;;4990710;28;20706;-68
2021/09/10 06:46:37;;;;;;;41.80;27.88;;;19.60;99.90;;;;;;4983112;28;20573;-69
2021/09/10 06:49:04;;;;;;;38.28;28.17;;;19.60;99.90;;;;;;4990186;28;20205;-69
2021/09/10 06:51:33;;;;;;;37.20;26.00;;;19.70;99.90;;;;;;4988857;28;20208;-68
2021/09/10 06:54:00;;;;;;;34.55;26.95;;;19.70;99.90;;;;;;4990754;28;20675;-69
2021/09/10 06:56:27;;;;;;;29.92;25.65;;;19.80;99.90;;;;;;4993664;28;20209;-69
2021/09/10 06:58:54;;;;;;;27.42;24.20;;;19.80;99.90;;;;;;4993247;28;20209;-70
2021/09/10 07:01:21;;;;;;;25.20;21.25;;;19.80;99.90;;;;;;4991621;28;20233;-70
2021/09/10 07:03:48;;;;;;;24.38;19.95;;;19.90;99.90;;;;;;4994390;28;20213;-69
2021/09/10 07:06:15;;;;;;;19.77;17.88;;;20.00;99.90;;;;;;4992832;28;20213;-69
2021/09/10 07:08:43;;;;;;;20.48;18.48;;;20.00;99.90;;;;;;4991445;28;20225;-69
2021/09/10 07:11:11;;;;;;;20.65;17.13;;;20.20;99.90;;;;;;4991215;28;20216;-69
2021/09/10 07:13:38;;;;;;;17.20;15.38;;;20.10;99.90;;;;;;4991866;28;20553;-68
2021/09/10 07:16:05;;;;;;;15.73;14.27;;;20.10;99.90;;;;;;4991952;28;20590;-69
2021/09/10 07:18:32;;;;;;;15.10;13.60;;;20.20;99.90;;;;;;4992969;28;20587;-72
2021/09/10 07:21:02;;;;;;;16.75;14.77;;;20.20;99.90;;;;;;4992734;28;20201;-68
2021/09/10 07:23:31;;;;;;;17.45;14.30;;;20.20;99.90;;;;;;4992802;28;20209;-69
2021/09/10 07:26:03;;;;;;;14.07;12.32;;;20.20;99.90;;;;;;4993631;28;20235;-69
2021/09/10 07:28:30;;;;;;;17.08;14.68;;;20.30;99.90;;;;;;4993084;28;20205;-68
2021/09/10 07:30:57;;;;;;;17.88;13.70;;;20.20;99.90;;;;;;4991624;28;20205;-69
2021/09/10 07:33:25;;;;;;;15.00;13.70;;;20.40;99.90;;;;;;4992225;28;20216;-69
2021/09/10 07:35:52;;;;;;;14.18;12.88;;;20.40;99.90;;;;;;4992949;28;20205;-68
2021/09/10 07:38:19;;;;;;;15.07;13.50;;;20.40;99.90;;;;;;4992546;28;20600;-68
2021/09/10 07:40:46;;;;;;;14.48;13.07;;;20.50;99.90;;;;;;4990255;28;20220;-67
2021/09/10 07:43:15;;;;;;;13.50;12.32;;;20.70;99.90;;;;;;4992545;28;20212;-67
2021/09/10 07:45:42;;;;;;;13.77;12.48;;;20.80;99.90;;;;;;4992712;28;20213;-67
2021/09/10 07:48:09;;;;;;;12.98;11.88;;;20.80;99.90;;;;;;4991904;28;20208;-68
2021/09/10 07:50:36;;;;;;;14.20;12.90;;;20.80;99.90;;;;;;4993053;28;20209;-68
2021/09/10 07:53:03;;;;;;;13.13;11.68;;;20.70;99.90;;;;;;4993003;28;20680;-68
2021/09/10 07:55:30;;;;;;;14.60;12.00;;;20.60;99.90;;;;;;4991748;28;20209;-68
2021/09/10 07:57:57;;;;;;;14.55;12.00;;;20.70;99.90;;;;;;4990049;28;20208;-68
2021/09/10 08:00:26;;;;;;;13.00;11.80;;;20.70;99.90;;;;;;4987337;28;20220;-68
2021/09/10 08:02:53;;;;;;;12.05;10.90;;;21.00;99.90;;;;;;4991690;28;20708;-68
2021/09/10 08:05:20;;;;;;;10.93;9.82;;;21.40;99.90;;;;;;4984915;28;20202;-68
2021/09/10 08:07:47;;;;;;;14.63;10.68;;;21.20;99.90;;;;;;4991444;28;20228;-68
2021/09/10 08:10:16;;;;;;;10.45;9.18;;;21.20;99.90;;;;;;4991604;28;20216;-68
2021/09/10 08:12:43;;;;;;;10.95;9.85;;;21.20;99.90;;;;;;4992398;28;20300;-68
2021/09/10 08:15:11;;;;;;;12.07;9.48;;;21.10;99.90;;;;;;4992977;28;20213;-68
2021/09/10 08:17:40;;;;;;;14.13;10.10;;;20.90;99.90;;;;;;4992842;28;20217;-68
2021/09/10 08:20:09;;;;;;;10.13;8.73;;;20.80;99.90;;;;;;4993042;28;20263;-68
2021/09/10 08:22:36;;;;;;;7.85;7.15;;;21.20;99.90;;;;;;4992586;28;20233;-68
2021/09/10 08:25:05;;;;;;;9.50;8.65;;;21.40;99.90;;;;;;4992637;28;20267;-68
2021/09/10 08:27:32;;;;;;;8.00;7.20;;;21.90;99.90;;;;;;4992584;28;20205;-68
2021/09/10 08:29:59;;;;;;;7.25;6.63;;;22.20;99.90;;;;;;4992355;28;20344;-68
2021/09/10 08:32:26;;;;;;;8.68;7.85;;;22.20;99.90;;;;;;4991951;28;20200;-68
2021/09/10 08:34:54;;;;;;;7.70;6.95;;;22.10;99.90;;;;;;4991824;28;20201;-68
2021/09/10 08:37:21;;;;;;;9.02;8.18;;;22.10;99.90;;;;;;4988745;28;20251;-67
2021/09/10 08:39:49;;;;;;;6.93;6.32;;;22.00;99.90;;;;;;4991974;28;20209;-68
2021/09/10 08:42:16;;;;;;;6.80;6.18;;;22.00;99.90;;;;;;4992979;28;20225;-68
2021/09/10 08:44:44;;;;;;;7.78;5.32;;;22.20;99.90;;;;;;4992042;28;20209;-68
2021/09/10 08:47:13;;;;;;;6.10;5.60;;;22.80;99.90;;;;;;4992299;28;20684;-68
2021/09/10 08:49:41;;;;;;;5.63;5.13;;;22.90;99.90;;;;;;4991918;28;20213;-68
2021/09/10 08:52:10;;;;;;;6.50;6.00;;;22.70;99.90;;;;;;4992448;28;20271;-68
2021/09/10 08:54:37;;;;;;;6.47;5.72;;;21.90;99.90;;;;;;4991733;28;20212;-68
2021/09/10 08:57:04;;;;;;;6.93;6.22;;;22.00;99.90;;;;;;4992074;28;20209;-68
2021/09/10 08:59:31;;;;;;;7.35;6.47;;;22.00;99.90;;;;;;4991153;28;20325;-68
2021/09/10 09:01:59;;;;;;;7.70;6.90;;;23.30;99.90;;;;;;4992348;28;20287;-68
2021/09/10 09:04:31;;;;;;;7.05;6.45;;;24.20;99.90;;;;;;4992101;28;20295;-68
2021/09/10 09:06:58;;;;;;;6.63;6.03;;;24.40;99.90;;;;;;4992073;28;20668;-68
2021/09/10 09:09:40;;;;;;;7.05;6.38;;;23.50;99.90;;;;;;4991832;28;20260;-68
2021/09/10 09:12:21;;;;;;;7.18;6.43;;;22.90;99.90;;;;;;4991770;28;20213;-68
2021/09/10 09:14:52;;;;;;;6.38;5.30;;;23.00;99.90;;;;;;4980448;28;20267;-68
2021/09/10 09:17:20;;;;;;;6.32;5.78;;;23.50;99.90;;;;;;4991803;28;20593;-68
2021/09/10 09:19:48;;;;;;;5.90;5.35;;;25.30;99.90;;;;;;4992599;28;20209;-68
2021/09/10 09:22:15;;;;;;;6.32;5.82;;;25.10;99.90;;;;;;4992453;28;20233;-68
2021/09/10 09:24:44;;;;;;;7.20;6.60;;;23.50;99.90;;;;;;4992994;28;20288;-68
2021/09/10 09:27:12;;;;;;;6.03;4.75;;;23.90;99.90;;;;;;4993137;28;20270;-68
2021/09/10 09:29:51;;;;;;;6.43;5.82;;;26.70;99.90;;;;;;4991077;28;20263;-69
2021/09/10 09:32:18;;;;;;;5.80;5.30;;;27.30;99.90;;;;;;4992264;28;20288;-68
2021/09/10 09:34:46;;;;;;;5.53;5.13;;;28.90;99.90;;;;;;4991735;28;20213;-69
2021/09/10 09:37:14;;;;;;;5.22;4.68;;;27.70;99.90;;;;;;4991611;28;20279;-69
2021/09/10 09:39:53;;;;;;;7.10;5.80;;;26.60;99.90;;;;;;4991240;28;20296;-69
2021/09/10 09:42:31;;;;;;;4.25;3.95;;;26.00;99.90;;;;;;4990827;28;20217;-69
2021/09/10 09:45:12;;;;;;;5.05;4.63;;;27.80;99.90;;;;;;4991460;28;20220;-69
2021/09/10 09:47:40;;;;;;;4.82;4.40;;;27.30;99.90;;;;;;4991132;28;20212;-68
2021/09/10 09:50:08;;;;;;;4.13;3.83;;;26.40;99.90;;;;;;4991156;28;20211;-69
2021/09/10 09:52:36;;;;;;;3.88;3.58;;;25.60;99.90;;;;;;4990899;28;20267;-71
2021/09/10 09:55:06;;;;;;;4.40;4.07;;;26.10;99.90;;;;;;4991141;28;20213;-71
2021/09/10 09:57:35;;;;;;;4.07;3.78;;;25.20;99.90;;;;;;4994005;28;20209;-71
2021/09/10 10:00:04;;;;;;;3.30;3.00;;;24.90;99.90;;;;;;4990264;28;20205;-71
2021/09/10 10:02:32;;;;;;;3.90;3.58;;;25.40;99.90;;;;;;4989338;28;20236;-72
2021/09/10 10:05:00;;;;;;;2.92;2.45;;;25.40;99.90;;;;;;4984053;28;20285;-71
2021/09/10 10:07:33;;;;;;;2.72;2.50;;;28.20;99.90;;;;;;4987155;28;20217;-71
2021/09/10 10:10:01;;;;;;;3.55;3.15;;;29.80;99.90;;;;;;4988161;28;20660;-70
2021/09/10 10:12:30;;;;;;;2.42;2.22;;;31.50;99.90;;;;;;4987171;28;20212;-72
2021/09/10 10:15:21;;;;;;;2.92;2.47;;;30.60;99.90;;;;;;4990166;28;20620;-72
2021/09/10 10:17:49;;;;;;;3.05;2.75;;;28.00;99.90;;;;;;4990878;28;20204;-70
2021/09/10 10:20:49;;;;;;;2.55;2.38;;;28.90;99.90;;;;;;4991601;28;20220;-71
2021/09/10 10:23:55;;;;;;;2.83;2.42;;;32.30;99.90;;;;;;4981948;28;20700;-71
2021/09/10 10:26:40;;;;;;;2.58;2.38;;;33.80;99.90;;;;;;4989350;28;20676;-71
2021/09/10 10:29:11;;;;;;;3.50;2.72;;;29.20;99.90;;;;;;4989300;28;20197;-72
2021/09/10 10:31:59;;;;;;;2.92;2.72;;;27.00;99.90;;;;;;4994174;28;20687;-71
2021/09/10 10:34:27;;;;;;;3.67;2.72;;;25.60;99.90;;;;;;4994101;28;20717;-71
2021/09/10 10:36:54;;;;;;;2.13;2.03;;;25.50;99.90;;;;;;4994849;28;20260;-71
2021/09/10 10:39:28;;;;;;;2.85;2.65;;;25.40;99.90;;;;;;4994050;28;20255;-71
2021/09/10 10:41:57;;;;;;;2.85;2.65;;;25.60;99.90;;;;;;4992941;28;20208;-72
2021/09/10 10:44:47;;;;;;;3.45;3.15;;;25.60;99.90;;;;;;4993244;28;20208;-71
2021/09/10 10:47:15;;;;;;;2.40;2.20;;;25.30;99.90;;;;;;4974059;28;20270;-71
2021/09/10 10:49:44;;;;;;;2.80;2.55;;;26.00;99.90;;;;;;4992907;28;20208;-71
2021/09/10 10:52:32;;;;;;;3.88;2.90;;;25.50;99.90;;;;;;4994660;28;20217;-70
2021/09/10 10:55:18;;;;;;;2.97;2.58;;;25.80;99.90;;;;;;4990134;28;20216;-70
2021/09/10 10:57:46;;;;;;;2.78;2.47;;;26.70;99.90;;;;;;4994143;28;20291;-70
2021/09/10 11:00:49;;;;;;;3.85;3.35;;;27.10;99.90;;;;;;4993784;28;20617;-71
2021/09/10 11:03:36;;;;;;;3.13;2.83;;;26.90;99.90;;;;;;4993986;28;20231;-71
2021/09/10 11:06:26;;;;;;;3.33;3.05;;;25.40;99.90;;;;;;4993915;28;20209;-71
2021/09/10 11:08:54;;;;;;;3.42;3.13;;;24.50;99.90;;;;;;4991257;28;20213;-72
2021/09/10 11:11:21;;;;;;;5.63;3.35;;;24.00;99.90;;;;;;4994201;28;20668;-71
2021/09/10 11:13:47;;;;;;;3.97;2.90;;;23.60;99.90;;;;;;4992946;28;20209;-73
2021/09/10 11:16:29;;;;;;;5.40;2.83;;;23.20;99.90;;;;;;4993036;28;20260;-74
2021/09/10 11:18:56;;;;;;;3.10;2.58;;;22.90;99.90;;;;;;4994369;28;20208;-73
2021/09/10 11:21:31;;;;;;;3.28;2.90;;;22.80;99.90;;;;;;4993609;28;20255;-73
2021/09/10 11:24:11;;;;;;;3.45;2.97;;;22.70;99.90;;;;;;4993653;28;20672;-72
2021/09/10 11:26:39;;;;;;;3.45;3.15;;;22.80;99.90;;;;;;4985180;28;20365;-72
2021/09/10 11:29:11;;;;;;;3.15;2.80;;;22.80;99.90;;;;;;4993795;28;20247;-73
2021/09/10 11:31:40;;;;;;;2.88;2.60;;;22.90;99.90;;;;;;4984442;28;20387;-71
2021/09/10 11:34:07;;;;;;;3.47;2.70;;;22.80;99.90;;;;;;4992122;28;20647;-70
2021/09/10 11:36:34;;;;;;;8.65;3.97;;;22.90;99.90;;;;;;4989858;28;20252;-72
2021/09/10 11:39:03;;;;;;;3.17;2.65;;;22.90;99.90;;;;;;4992093;28;21444;-70
2021/09/10 11:41:31;;;;;;;3.78;3.45;;;22.90;99.90;;;;;;4991893;28;20209;-71
2021/09/10 11:44:10;;;;;;;3.13;2.83;;;23.20;99.90;;;;;;4990422;28;20720;-70
2021/09/10 11:46:37;;;;;;;5.22;2.92;;;23.60;99.90;;;;;;4986478;28;20213;-70
2021/09/10 11:49:06;;;;;;;6.05;3.50;;;24.10;99.90;;;;;;4991091;28;20201;-71
2021/09/10 11:51:39;;;;;;;3.00;2.70;;;24.50;99.90;;;;;;4992319;28;20259;-71
2021/09/10 11:54:11;;;;;;;2.55;2.38;;;24.80;99.90;;;;;;4993590;28;20217;-71
2021/09/10 11:56:39;;;;;;;3.45;3.15;;;24.40;99.90;;;;;;4993006;28;20819;-71
2021/09/10 11:59:21;;;;;;;4.70;2.78;;;24.70;99.90;;;;;;4991557;28;20255;-70
2021/09/10 12:01:49;;;;;;;3.80;2.72;;;24.50;99.90;;;;;;4991981;28;20299;-71
2021/09/10 12:04:28;;;;;;;2.38;2.17;;;24.60;99.90;;;;;;4986267;28;20232;-72
2021/09/10 12:06:57;;;;;;;2.35;2.15;;;25.00;99.90;;;;;;4990029;28;20236;-71
2021/09/10 12:09:26;;;;;;;2.45;2.25;;;24.90;99.90;;;;;;4990257;28;20209;-73
2021/09/10 12:12:16;;;;;;;1.80;1.70;;;25.10;99.90;;;;;;4991894;28;20216;-67
2021/09/10 12:14:46;;;;;;;2.03;1.73;;;25.30;99.90;;;;;;4977341;28;20681;-69
2021/09/10 12:17:28;;;;;;;2.22;1.65;;;25.80;99.90;;;;;;4992514;28;20730;-68
2021/09/10 12:19:59;;;;;;;1.83;1.73;;;26.10;99.90;;;;;;4981254;28;20213;-69
2021/09/10 12:22:35;;;;;;;1.80;1.70;;;26.40;99.90;;;;;;4991864;28;20209;-69
2021/09/10 12:25:22;;;;;;;1.67;1.58;;;26.40;99.90;;;;;;4992571;28;20282;-68
2021/09/10 12:27:50;;;;;;;4.22;2.25;;;26.40;99.90;;;;;;4990135;28;20208;-69
2021/09/10 12:30:20;;;;;;;2.88;2.60;;;27.00;99.90;;;;;;4991291;28;20209;-69
2021/09/10 12:32:47;;;;;;;3.30;2.60;;;26.80;99.90;;;;;;4985839;28;20217;-69
2021/09/10 12:35:15;;;;;;;3.28;2.25;;;26.30;99.90;;;;;;4992304;28;20209;-70
2021/09/10 12:37:51;;;;;;;3.15;2.22;;;25.90;99.90;;;;;;4990155;28;20259;-70
2021/09/10 12:40:18;;;;;;;3.50;2.45;;;25.10;99.90;;;;;;4993062;28;20279;-69
2021/09/10 12:42:45;;;;;;;3.85;2.58;;;25.00;99.90;;;;;;4992896;28;20247;-69
2021/09/10 12:45:12;;;;;;;2.78;1.85;;;24.90;99.90;;;;;;4992582;28;20201;-69
2021/09/10 12:47:39;;;;;;;2.38;2.15;;;24.60;99.90;;;;;;4992009;28;20213;-69
2021/09/10 12:50:08;;;;;;;4.32;2.95;;;23.80;99.90;;;;;;4992122;28;20204;-68
2021/09/10 12:52:36;;;;;;;4.60;2.85;;;23.70;99.90;;;;;;4991643;28;20205;-68